Wednesday, January 17, 2018, 7:14 PM EST
Back to Local

KNTU, Oceana, Naval Air Station

Location: Virginia Beach, VA, United States Lat: 36.817
Local Time: 7:14 PM EST ( 0:14 GMT) Lon: -76.033
Time Zone: US/Eastern Elev: 22 ft

Show me the last for .
Show Decoded

2018-01-17 18:25 METAR KNTU 172325Z 35013KT 1 1/2SM -SN BR BKN008 OVC014 M02/M06 A3023 RMK AO2
                 RSC IR13 P0000 T10221056 =
2018-01-17 17:56 METAR KNTU 172256Z 36011KT 3/4SM -SN BKN008 OVC014 M03/M06 A3024 RMK AO2 SLP241
                 P0000 T10281056 =
2018-01-17 17:31 METAR KNTU 172231Z 36012KT 3/4SM -SN BR OVC008 M03/M05 A3023 RMK AO2 P0000
                 T10281050 =
2018-01-17 16:56 METAR KNTU 172156Z 36010KT 1/4SM SN FZFG OVC008 M02/M04 A3024 RMK AO2 SLP241
                 P0001 T10221044 =
2018-01-17 16:43 METAR KNTU 172143Z 36011KT 1/4SM SN FZFG OVC008 M02/M04 A3024 RMK AO2 P0000
                 T10221044 =
2018-01-17 16:13 METAR KNTU 172113Z 35009KT 1/2SM SN BKN008 OVC014 M02/M05 A3025 RMK AO2 P0000
                 T10171050 =
2018-01-17 16:08 METAR KNTU 172108Z 35012G21KT 3/4SM -SN OVC011 M02/M05 A3024 RMK AO2 P0000
                 T10171050 =
2018-01-17 16:02 METAR KNTU 172102Z 35014G21KT 1 1/2SM -SN OVC010 M02/M05 A3023 RMK AO2 P0000
                 T10171050 =
2018-01-17 15:56 METAR KNTU 172056Z 35015G21KT 2 1/2SM -SN OVC011 M02/M05 A3023 RMK AO2
                 UPB13E21SNB43 SLP239 P0000 60000 T10171050 56012 =
2018-01-17 14:56 METAR KNTU 171956Z 35018G23KT 10SM BKN014 OVC060 M01/M06 A3023 RMK AO2 PK WND
                 34026/1928 SLP240 T10111056 =
2018-01-17 13:56 METAR KNTU 171856Z 36016G25KT 10SM OVC012 00/M05 A3024 RMK AO2 SLP243 T00001050
                 =
2018-01-17 12:56 METAR KNTU 171756Z 35015G25KT 10SM OVC012 01/M04 A3026 RMK AO2 SLP251 60000
                 T00061039 10028 20000 58018 =
2018-01-17 11:56 METAR KNTU 171656Z 36014G20KT 10SM OVC011 02/M03 A3029 RMK AO2 RAB43E52 SLP259
                 P0000 T00171028 =
2018-01-17 10:56 METAR KNTU 171556Z COR 36010KT 9SM OVC010 03/M02 A3031 RMK AO2 RAB15E22B46E56
                 SLP266 P0000 T00281017 =
2018-01-17 10:03 METAR KNTU 171503Z 36010G18KT 6SM BR OVC010 02/M01 A3032 RMK AO2 T00221011 =
2018-01-17 09:56 METAR KNTU 171456Z 36013G19KT 6SM BR SCT011 BKN030 OVC220 02/M01 A3032 RMK AO2
                 SLP269 T00221011 50009 =
2018-01-17 08:56 METAR KNTU 171356Z 36009KT 5SM BR SCT012 BKN030 BKN220 02/M01 A3032 RMK AO2
                 SLP270 T00221011 =
2018-01-17 07:56 METAR KNTU 171256Z 01005KT 9SM BKN220 01/M02 A3029 RMK AO2 SLP259 T00111017 =
2018-01-17 06:56 METAR KNTU 171156Z 00000KT 5SM BR BKN220 00/M03 A3029 RMK AO2 SLP260 P0000 60000
                 T00001028 10039 21011 53005 =
2018-01-17 05:56 METAR KNTU 171056Z 32003KT 7SM OVC220 02/M04 A3028 RMK AO2 SLP256 T00221044 =
2018-01-17 04:56 METAR KNTU 170956Z 34003KT 7SM BKN190 OVC230 M01/M03 A3027 RMK AO2 SLP252
                 T10061033 =
2018-01-17 03:56 METAR KNTU 170856Z 00000KT 6SM HZ SCT160 OVC230 00/M03 A3028 RMK AO2 SLP255
                 T00001033 58001 =
2018-01-17 02:56 METAR KNTU 170756Z 00000KT 7SM BKN160 OVC220 00/M03 A3029 RMK AO2 SLP258
                 T00001028 =
2018-01-17 01:56 METAR KNTU 170656Z 00000KT 7SM OVC240 02/M03 A3028 RMK AO2 SLP255 T00221028 =
2018-01-17 00:56 METAR KNTU 170556Z 00000KT 7SM OVC240 02/M03 A3028 RMK AO2 SLP256 T00171028
                 10044 20000 58019 =
2018-01-16 23:56 METAR KNTU 170456Z 00000KT 7SM OVC230 02/M03 A3031 RMK AO2 SLP265 T00221028
                 400670000 =
2018-01-16 22:56 METAR KNTU 170356Z 00000KT 7SM OVC220 01/M03 A3032 RMK AO2 SLP270 T00061028 =
2018-01-16 21:56 METAR KNTU 170256Z 27003KT 10SM OVC220 04/M03 A3034 RMK AO2 SLP275 T00391028
                 56010 =
2018-01-16 20:56 METAR KNTU 170156Z COR 00000KT 10SM OVC220 01/M03 A3034 RMK AO2 SLP277 T00111028
                 =
2018-01-16 19:56 METAR KNTU 170056Z 00000KT 10SM OVC220 01/M02 A3034 RMK AO2 SLP277 T00061022 =

Support USWX by starting your Amazon purchase here.